sensor_id;sensor_type;location;lat;lon;timestamp;P1;durP1;ratioP1;P2;durP2;ratioP2
41059;SDS011;26811;53.160;8.202;2024-02-26T00:01:02;28.88;;;16.42;;
41059;SDS011;26811;53.160;8.202;2024-02-26T00:06:04;28.67;;;16.38;;
41059;SDS011;26811;53.160;8.202;2024-02-26T00:11:05;29.60;;;15.85;;
41059;SDS011;26811;53.160;8.202;2024-02-26T00:16:06;30.45;;;15.88;;
41059;SDS011;26811;53.160;8.202;2024-02-26T00:21:07;28.23;;;16.38;;
41059;SDS011;26811;53.160;8.202;2024-02-26T00:26:07;33.15;;;17.00;;
41059;SDS011;26811;53.160;8.202;2024-02-26T00:31:09;33.42;;;17.92;;
41059;SDS011;26811;53.160;8.202;2024-02-26T00:36:09;34.60;;;17.45;;
41059;SDS011;26811;53.160;8.202;2024-02-26T00:41:10;31.38;;;16.20;;
41059;SDS011;26811;53.160;8.202;2024-02-26T00:46:10;29.02;;;15.18;;
41059;SDS011;26811;53.160;8.202;2024-02-26T00:51:11;30.02;;;16.67;;
41059;SDS011;26811;53.160;8.202;2024-02-26T00:56:11;28.48;;;15.73;;
41059;SDS011;26811;53.160;8.202;2024-02-26T01:01:12;29.52;;;16.65;;
41059;SDS011;26811;53.160;8.202;2024-02-26T01:06:12;26.60;;;15.20;;
41059;SDS011;26811;53.160;8.202;2024-02-26T01:11:13;32.70;;;16.58;;
41059;SDS011;26811;53.160;8.202;2024-02-26T01:16:13;31.75;;;16.25;;
41059;SDS011;26811;53.160;8.202;2024-02-26T01:21:14;31.85;;;16.58;;
41059;SDS011;26811;53.160;8.202;2024-02-26T01:26:15;25.23;;;14.43;;
41059;SDS011;26811;53.160;8.202;2024-02-26T01:31:15;26.70;;;15.38;;
41059;SDS011;26811;53.160;8.202;2024-02-26T01:36:16;28.38;;;15.45;;
41059;SDS011;26811;53.160;8.202;2024-02-26T01:41:16;30.17;;;16.10;;
41059;SDS011;26811;53.160;8.202;2024-02-26T01:46:17;28.02;;;15.15;;
41059;SDS011;26811;53.160;8.202;2024-02-26T01:51:18;30.48;;;16.10;;
41059;SDS011;26811;53.160;8.202;2024-02-26T01:56:18;30.45;;;15.35;;
41059;SDS011;26811;53.160;8.202;2024-02-26T02:01:20;29.50;;;15.02;;
41059;SDS011;26811;53.160;8.202;2024-02-26T02:06:22;29.83;;;15.23;;
41059;SDS011;26811;53.160;8.202;2024-02-26T02:11:23;26.63;;;15.25;;
41059;SDS011;26811;53.160;8.202;2024-02-26T02:16:23;28.23;;;14.77;;
41059;SDS011;26811;53.160;8.202;2024-02-26T02:21:24;25.55;;;14.20;;
41059;SDS011;26811;53.160;8.202;2024-02-26T02:26:25;26.83;;;14.02;;
41059;SDS011;26811;53.160;8.202;2024-02-26T02:31:25;29.48;;;15.30;;
41059;SDS011;26811;53.160;8.202;2024-02-26T02:36:26;28.75;;;14.68;;
41059;SDS011;26811;53.160;8.202;2024-02-26T02:41:27;28.98;;;14.60;;
41059;SDS011;26811;53.160;8.202;2024-02-26T02:46:29;33.70;;;16.60;;
41059;SDS011;26811;53.160;8.202;2024-02-26T02:51:31;31.77;;;16.23;;
41059;SDS011;26811;53.160;8.202;2024-02-26T02:56:31;31.98;;;15.73;;
41059;SDS011;26811;53.160;8.202;2024-02-26T03:01:32;31.92;;;16.40;;
41059;SDS011;26811;53.160;8.202;2024-02-26T03:06:32;31.63;;;15.35;;
41059;SDS011;26811;53.160;8.202;2024-02-26T03:11:33;34.78;;;16.10;;
41059;SDS011;26811;53.160;8.202;2024-02-26T03:16:33;33.60;;;15.77;;
41059;SDS011;26811;53.160;8.202;2024-02-26T03:21:34;35.33;;;15.77;;
41059;SDS011;26811;53.160;8.202;2024-02-26T03:26:35;35.55;;;15.77;;
41059;SDS011;26811;53.160;8.202;2024-02-26T03:31:36;32.55;;;15.43;;
41059;SDS011;26811;53.160;8.202;2024-02-26T03:36:36;35.13;;;16.92;;
41059;SDS011;26811;53.160;8.202;2024-02-26T03:41:37;33.83;;;15.82;;
41059;SDS011;26811;53.160;8.202;2024-02-26T03:46:37;36.35;;;16.23;;
41059;SDS011;26811;53.160;8.202;2024-02-26T03:51:38;35.72;;;16.08;;
41059;SDS011;26811;53.160;8.202;2024-02-26T03:56:38;40.13;;;16.13;;
41059;SDS011;26811;53.160;8.202;2024-02-26T04:01:39;37.85;;;17.25;;
41059;SDS011;26811;53.160;8.202;2024-02-26T04:06:45;37.20;;;16.92;;
41059;SDS011;26811;53.160;8.202;2024-02-26T04:11:46;45.72;;;18.38;;
41059;SDS011;26811;53.160;8.202;2024-02-26T04:16:47;45.67;;;18.67;;
41059;SDS011;26811;53.160;8.202;2024-02-26T04:21:51;46.50;;;19.20;;
41059;SDS011;26811;53.160;8.202;2024-02-26T04:26:51;52.75;;;20.80;;
41059;SDS011;26811;53.160;8.202;2024-02-26T04:31:52;48.35;;;19.58;;
41059;SDS011;26811;53.160;8.202;2024-02-26T04:36:53;52.47;;;20.67;;
41059;SDS011;26811;53.160;8.202;2024-02-26T04:41:53;49.33;;;18.90;;
41059;SDS011;26811;53.160;8.202;2024-02-26T04:46:54;50.28;;;19.98;;
41059;SDS011;26811;53.160;8.202;2024-02-26T04:51:54;42.78;;;18.33;;
41059;SDS011;26811;53.160;8.202;2024-02-26T04:56:55;39.45;;;18.20;;
41059;SDS011;26811;53.160;8.202;2024-02-26T05:01:55;46.22;;;18.67;;
41059;SDS011;26811;53.160;8.202;2024-02-26T05:06:56;34.63;;;16.17;;
41059;SDS011;26811;53.160;8.202;2024-02-26T05:11:56;34.97;;;16.58;;
41059;SDS011;26811;53.160;8.202;2024-02-26T05:16:57;34.50;;;16.15;;
41059;SDS011;26811;53.160;8.202;2024-02-26T05:21:57;32.95;;;15.82;;
41059;SDS011;26811;53.160;8.202;2024-02-26T05:26:59;32.13;;;15.75;;
41059;SDS011;26811;53.160;8.202;2024-02-26T05:31:59;32.85;;;15.95;;
41059;SDS011;26811;53.160;8.202;2024-02-26T05:37:00;35.42;;;15.27;;
41059;SDS011;26811;53.160;8.202;2024-02-26T05:42:01;36.75;;;15.75;;
41059;SDS011;26811;53.160;8.202;2024-02-26T05:47:01;33.85;;;16.80;;
41059;SDS011;26811;53.160;8.202;2024-02-26T05:52:02;34.92;;;17.15;;
41059;SDS011;26811;53.160;8.202;2024-02-26T05:57:02;35.70;;;15.65;;
41059;SDS011;26811;53.160;8.202;2024-02-26T06:02:03;38.08;;;16.73;;
41059;SDS011;26811;53.160;8.202;2024-02-26T06:07:04;34.15;;;16.25;;
41059;SDS011;26811;53.160;8.202;2024-02-26T06:12:05;33.08;;;16.45;;
41059;SDS011;26811;53.160;8.202;2024-02-26T06:17:06;31.48;;;15.25;;
41059;SDS011;26811;53.160;8.202;2024-02-26T06:22:07;31.42;;;16.17;;
41059;SDS011;26811;53.160;8.202;2024-02-26T06:27:07;32.00;;;16.98;;
41059;SDS011;26811;53.160;8.202;2024-02-26T06:32:08;29.52;;;16.60;;
41059;SDS011;26811;53.160;8.202;2024-02-26T06:37:11;30.73;;;16.10;;
41059;SDS011;26811;53.160;8.202;2024-02-26T06:42:12;29.63;;;16.23;;
41059;SDS011;26811;53.160;8.202;2024-02-26T06:47:12;27.48;;;15.82;;
41059;SDS011;26811;53.160;8.202;2024-02-26T06:52:13;32.63;;;16.65;;
41059;SDS011;26811;53.160;8.202;2024-02-26T06:57:13;32.25;;;15.73;;
41059;SDS011;26811;53.160;8.202;2024-02-26T07:02:14;28.27;;;15.98;;
41059;SDS011;26811;53.160;8.202;2024-02-26T07:07:14;30.00;;;14.52;;
41059;SDS011;26811;53.160;8.202;2024-02-26T07:12:15;27.02;;;14.77;;
41059;SDS011;26811;53.160;8.202;2024-02-26T07:17:16;24.33;;;13.88;;
41059;SDS011;26811;53.160;8.202;2024-02-26T07:22:17;27.92;;;14.75;;
41059;SDS011;26811;53.160;8.202;2024-02-26T07:27:20;25.02;;;14.27;;
41059;SDS011;26811;53.160;8.202;2024-02-26T07:32:21;22.42;;;12.75;;
41059;SDS011;26811;53.160;8.202;2024-02-26T07:37:22;25.40;;;13.80;;
41059;SDS011;26811;53.160;8.202;2024-02-26T07:42:22;25.10;;;13.68;;
41059;SDS011;26811;53.160;8.202;2024-02-26T07:47:23;22.60;;;12.57;;
41059;SDS011;26811;53.160;8.202;2024-02-26T07:52:24;39.65;;;23.35;;
41059;SDS011;26811;53.160;8.202;2024-02-26T07:57:24;23.42;;;14.38;;
41059;SDS011;26811;53.160;8.202;2024-02-26T08:02:25;19.58;;;11.63;;
41059;SDS011;26811;53.160;8.202;2024-02-26T08:07:25;20.08;;;12.40;;
41059;SDS011;26811;53.160;8.202;2024-02-26T08:12:26;16.20;;;10.50;;
41059;SDS011;26811;53.160;8.202;2024-02-26T08:17:26;15.77;;;9.75;;
41059;SDS011;26811;53.160;8.202;2024-02-26T08:22:27;13.68;;;9.48;;
41059;SDS011;26811;53.160;8.202;2024-02-26T08:27:28;17.15;;;9.70;;
41059;SDS011;26811;53.160;8.202;2024-02-26T08:32:28;18.55;;;10.50;;
41059;SDS011;26811;53.160;8.202;2024-02-26T08:37:29;15.13;;;9.80;;
41059;SDS011;26811;53.160;8.202;2024-02-26T08:42:29;15.35;;;9.80;;
41059;SDS011;26811;53.160;8.202;2024-02-26T08:47:30;16.60;;;10.30;;
41059;SDS011;26811;53.160;8.202;2024-02-26T08:52:30;15.48;;;9.80;;
41059;SDS011;26811;53.160;8.202;2024-02-26T08:57:31;21.67;;;11.40;;
41059;SDS011;26811;53.160;8.202;2024-02-26T09:07:43;14.18;;;9.10;;
41059;SDS011;26811;53.160;8.202;2024-02-26T09:12:44;14.98;;;9.68;;
41059;SDS011;26811;53.160;8.202;2024-02-26T09:17:44;13.82;;;9.20;;
41059;SDS011;26811;53.160;8.202;2024-02-26T09:22:46;16.05;;;8.82;;
41059;SDS011;26811;53.160;8.202;2024-02-26T09:27:47;20.85;;;10.82;;
41059;SDS011;26811;53.160;8.202;2024-02-26T09:32:48;17.85;;;9.80;;
41059;SDS011;26811;53.160;8.202;2024-02-26T09:37:48;25.45;;;13.90;;
41059;SDS011;26811;53.160;8.202;2024-02-26T09:42:49;16.15;;;10.07;;
41059;SDS011;26811;53.160;8.202;2024-02-26T09:47:58;14.95;;;9.40;;
41059;SDS011;26811;53.160;8.202;2024-02-26T09:52:59;17.05;;;9.73;;
41059;SDS011;26811;53.160;8.202;2024-02-26T10:03:05;15.73;;;9.52;;
41059;SDS011;26811;53.160;8.202;2024-02-26T10:08:09;15.07;;;9.30;;
41059;SDS011;26811;53.160;8.202;2024-02-26T10:13:11;14.60;;;9.15;;
41059;SDS011;26811;53.160;8.202;2024-02-26T10:18:12;15.15;;;8.70;;
41059;SDS011;26811;53.160;8.202;2024-02-26T10:23:12;16.80;;;9.02;;
41059;SDS011;26811;53.160;8.202;2024-02-26T10:28:13;15.32;;;9.90;;
41059;SDS011;26811;53.160;8.202;2024-02-26T10:33:14;13.45;;;8.85;;
41059;SDS011;26811;53.160;8.202;2024-02-26T10:38:15;13.75;;;9.13;;
41059;SDS011;26811;53.160;8.202;2024-02-26T10:43:23;13.75;;;8.85;;
41059;SDS011;26811;53.160;8.202;2024-02-26T10:48:25;12.13;;;8.30;;
41059;SDS011;26811;53.160;8.202;2024-02-26T10:53:28;13.15;;;9.00;;
41059;SDS011;26811;53.160;8.202;2024-02-26T10:58:31;16.52;;;8.95;;
41059;SDS011;26811;53.160;8.202;2024-02-26T11:03:31;16.92;;;8.93;;
41059;SDS011;26811;53.160;8.202;2024-02-26T11:08:34;15.30;;;8.60;;
41059;SDS011;26811;53.160;8.202;2024-02-26T11:13:35;18.30;;;9.32;;
41059;SDS011;26811;53.160;8.202;2024-02-26T11:18:39;12.75;;;8.25;;
41059;SDS011;26811;53.160;8.202;2024-02-26T11:23:42;13.15;;;8.85;;
41059;SDS011;26811;53.160;8.202;2024-02-26T11:28:43;13.23;;;8.52;;
41059;SDS011;26811;53.160;8.202;2024-02-26T11:33:45;13.18;;;8.52;;
41059;SDS011;26811;53.160;8.202;2024-02-26T11:38:48;16.30;;;9.13;;
41059;SDS011;26811;53.160;8.202;2024-02-26T11:43:58;13.48;;;9.20;;
41059;SDS011;26811;53.160;8.202;2024-02-26T11:49:03;19.08;;;10.10;;
41059;SDS011;26811;53.160;8.202;2024-02-26T11:59:44;17.08;;;9.45;;
41059;SDS011;26811;53.160;8.202;2024-02-26T12:04:45;16.38;;;10.13;;
41059;SDS011;26811;53.160;8.202;2024-02-26T12:09:46;22.42;;;11.32;;
41059;SDS011;26811;53.160;8.202;2024-02-26T12:14:53;16.42;;;9.98;;
41059;SDS011;26811;53.160;8.202;2024-02-26T12:19:55;17.73;;;10.32;;
41059;SDS011;26811;53.160;8.202;2024-02-26T12:25:09;18.33;;;10.65;;
41059;SDS011;26811;53.160;8.202;2024-02-26T12:30:10;21.35;;;11.43;;
41059;SDS011;26811;53.160;8.202;2024-02-26T12:35:11;21.08;;;12.18;;
41059;SDS011;26811;53.160;8.202;2024-02-26T12:40:12;18.95;;;11.02;;
41059;SDS011;26811;53.160;8.202;2024-02-26T12:45:13;18.38;;;10.50;;
41059;SDS011;26811;53.160;8.202;2024-02-26T12:50:15;16.85;;;10.50;;
41059;SDS011;26811;53.160;8.202;2024-02-26T12:55:17;17.17;;;10.15;;
41059;SDS011;26811;53.160;8.202;2024-02-26T13:00:23;17.05;;;10.43;;
41059;SDS011;26811;53.160;8.202;2024-02-26T13:05:26;17.17;;;10.65;;
41059;SDS011;26811;53.160;8.202;2024-02-26T13:10:27;17.70;;;10.40;;
41059;SDS011;26811;53.160;8.202;2024-02-26T13:15:27;18.33;;;11.05;;
41059;SDS011;26811;53.160;8.202;2024-02-26T13:20:29;19.40;;;10.75;;
41059;SDS011;26811;53.160;8.202;2024-02-26T13:25:30;18.63;;;10.63;;
41059;SDS011;26811;53.160;8.202;2024-02-26T13:30:31;22.30;;;11.60;;
41059;SDS011;26811;53.160;8.202;2024-02-26T13:35:31;20.63;;;11.05;;
41059;SDS011;26811;53.160;8.202;2024-02-26T13:40:33;22.83;;;12.00;;
41059;SDS011;26811;53.160;8.202;2024-02-26T13:45:34;23.55;;;11.43;;
41059;SDS011;26811;53.160;8.202;2024-02-26T13:50:35;18.95;;;11.77;;
41059;SDS011;26811;53.160;8.202;2024-02-26T13:55:36;20.38;;;12.45;;
41059;SDS011;26811;53.160;8.202;2024-02-26T14:00:37;22.50;;;12.75;;
41059;SDS011;26811;53.160;8.202;2024-02-26T14:05:37;19.17;;;11.80;;
41059;SDS011;26811;53.160;8.202;2024-02-26T14:10:38;20.08;;;11.68;;
41059;SDS011;26811;53.160;8.202;2024-02-26T14:15:39;23.20;;;12.25;;
41059;SDS011;26811;53.160;8.202;2024-02-26T14:20:40;22.08;;;12.73;;
41059;SDS011;26811;53.160;8.202;2024-02-26T14:25:40;22.92;;;11.93;;
41059;SDS011;26811;53.160;8.202;2024-02-26T14:30:41;24.60;;;11.77;;
41059;SDS011;26811;53.160;8.202;2024-02-26T14:35:41;21.88;;;12.23;;
41059;SDS011;26811;53.160;8.202;2024-02-26T14:40:42;26.23;;;12.95;;
41059;SDS011;26811;53.160;8.202;2024-02-26T14:45:43;20.58;;;11.50;;
41059;SDS011;26811;53.160;8.202;2024-02-26T14:50:43;23.98;;;12.55;;
41059;SDS011;26811;53.160;8.202;2024-02-26T14:55:44;26.55;;;12.88;;
41059;SDS011;26811;53.160;8.202;2024-02-26T15:00:44;28.40;;;13.07;;
41059;SDS011;26811;53.160;8.202;2024-02-26T15:05:45;24.73;;;12.80;;
41059;SDS011;26811;53.160;8.202;2024-02-26T15:10:45;22.55;;;12.35;;
41059;SDS011;26811;53.160;8.202;2024-02-26T15:15:49;24.15;;;12.48;;
41059;SDS011;26811;53.160;8.202;2024-02-26T15:20:52;26.40;;;13.00;;
41059;SDS011;26811;53.160;8.202;2024-02-26T15:25:52;28.80;;;13.95;;
41059;SDS011;26811;53.160;8.202;2024-02-26T15:30:53;25.08;;;13.07;;
41059;SDS011;26811;53.160;8.202;2024-02-26T15:35:54;26.02;;;13.38;;
41059;SDS011;26811;53.160;8.202;2024-02-26T15:40:54;23.40;;;12.20;;
41059;SDS011;26811;53.160;8.202;2024-02-26T15:45:55;23.25;;;12.32;;
41059;SDS011;26811;53.160;8.202;2024-02-26T15:50:55;24.45;;;12.75;;
41059;SDS011;26811;53.160;8.202;2024-02-26T15:55:56;26.92;;;12.98;;
41059;SDS011;26811;53.160;8.202;2024-02-26T16:00:59;25.55;;;13.45;;
41059;SDS011;26811;53.160;8.202;2024-02-26T16:06:11;23.40;;;13.23;;
41059;SDS011;26811;53.160;8.202;2024-02-26T16:11:22;23.77;;;12.63;;
41059;SDS011;26811;53.160;8.202;2024-02-26T16:16:23;22.98;;;13.05;;
41059;SDS011;26811;53.160;8.202;2024-02-26T16:21:32;27.23;;;13.75;;
41059;SDS011;26811;53.160;8.202;2024-02-26T16:26:32;28.58;;;13.73;;
41059;SDS011;26811;53.160;8.202;2024-02-26T16:31:33;26.65;;;13.40;;
41059;SDS011;26811;53.160;8.202;2024-02-26T16:36:33;28.45;;;14.10;;
41059;SDS011;26811;53.160;8.202;2024-02-26T16:41:34;27.95;;;14.20;;
41059;SDS011;26811;53.160;8.202;2024-02-26T16:46:34;27.02;;;12.88;;
41059;SDS011;26811;53.160;8.202;2024-02-26T16:51:38;27.75;;;14.18;;
41059;SDS011;26811;53.160;8.202;2024-02-26T16:56:39;27.83;;;12.95;;
41059;SDS011;26811;53.160;8.202;2024-02-26T17:01:44;28.58;;;13.93;;
41059;SDS011;26811;53.160;8.202;2024-02-26T17:06:48;29.00;;;14.57;;
41059;SDS011;26811;53.160;8.202;2024-02-26T17:11:49;31.30;;;14.82;;
41059;SDS011;26811;53.160;8.202;2024-02-26T17:16:50;33.08;;;14.55;;
41059;SDS011;26811;53.160;8.202;2024-02-26T17:21:51;29.55;;;14.55;;
41059;SDS011;26811;53.160;8.202;2024-02-26T17:26:53;33.33;;;16.17;;
41059;SDS011;26811;53.160;8.202;2024-02-26T17:31:54;30.30;;;14.63;;
41059;SDS011;26811;53.160;8.202;2024-02-26T17:36:54;35.15;;;15.15;;
41059;SDS011;26811;53.160;8.202;2024-02-26T17:41:56;31.65;;;15.57;;
41059;SDS011;26811;53.160;8.202;2024-02-26T17:51:59;30.77;;;14.77;;
41059;SDS011;26811;53.160;8.202;2024-02-26T17:57:48;33.70;;;14.70;;
41059;SDS011;26811;53.160;8.202;2024-02-26T18:07:30;31.48;;;14.95;;
41059;SDS011;26811;53.160;8.202;2024-02-26T18:12:31;38.28;;;16.85;;
41059;SDS011;26811;53.160;8.202;2024-02-26T18:17:32;33.15;;;15.20;;
41059;SDS011;26811;53.160;8.202;2024-02-26T18:22:34;33.97;;;15.77;;
41059;SDS011;26811;53.160;8.202;2024-02-26T18:27:36;32.67;;;15.93;;
41059;SDS011;26811;53.160;8.202;2024-02-26T18:32:37;28.70;;;14.50;;
41059;SDS011;26811;53.160;8.202;2024-02-26T18:37:38;28.98;;;14.65;;
41059;SDS011;26811;53.160;8.202;2024-02-26T18:42:38;31.48;;;14.43;;
41059;SDS011;26811;53.160;8.202;2024-02-26T18:47:39;30.17;;;14.52;;
41059;SDS011;26811;53.160;8.202;2024-02-26T18:52:40;29.50;;;14.18;;
41059;SDS011;26811;53.160;8.202;2024-02-26T18:57:40;31.48;;;15.73;;
41059;SDS011;26811;53.160;8.202;2024-02-26T19:02:41;28.80;;;14.85;;
41059;SDS011;26811;53.160;8.202;2024-02-26T19:07:42;35.15;;;16.55;;
41059;SDS011;26811;53.160;8.202;2024-02-26T19:12:42;30.85;;;14.45;;
41059;SDS011;26811;53.160;8.202;2024-02-26T19:17:44;35.28;;;16.27;;
41059;SDS011;26811;53.160;8.202;2024-02-26T19:22:48;30.52;;;15.35;;
41059;SDS011;26811;53.160;8.202;2024-02-26T19:27:49;31.33;;;15.18;;
41059;SDS011;26811;53.160;8.202;2024-02-26T19:32:49;29.73;;;14.85;;
41059;SDS011;26811;53.160;8.202;2024-02-26T19:37:50;30.10;;;14.50;;
41059;SDS011;26811;53.160;8.202;2024-02-26T19:42:51;31.52;;;16.15;;
41059;SDS011;26811;53.160;8.202;2024-02-26T19:47:51;32.38;;;16.00;;
41059;SDS011;26811;53.160;8.202;2024-02-26T19:52:52;32.90;;;15.30;;
41059;SDS011;26811;53.160;8.202;2024-02-26T19:57:52;29.98;;;15.43;;
41059;SDS011;26811;53.160;8.202;2024-02-26T20:02:54;32.70;;;16.13;;
41059;SDS011;26811;53.160;8.202;2024-02-26T20:07:54;31.73;;;15.68;;
41059;SDS011;26811;53.160;8.202;2024-02-26T20:12:55;32.97;;;15.35;;
41059;SDS011;26811;53.160;8.202;2024-02-26T20:17:59;33.42;;;17.17;;
41059;SDS011;26811;53.160;8.202;2024-02-26T20:23:00;35.60;;;17.52;;
41059;SDS011;26811;53.160;8.202;2024-02-26T20:28:01;34.08;;;16.35;;
41059;SDS011;26811;53.160;8.202;2024-02-26T20:33:01;36.72;;;16.88;;
41059;SDS011;26811;53.160;8.202;2024-02-26T20:38:02;33.80;;;16.42;;
41059;SDS011;26811;53.160;8.202;2024-02-26T20:43:05;36.63;;;17.08;;
41059;SDS011;26811;53.160;8.202;2024-02-26T20:48:06;34.53;;;16.58;;
41059;SDS011;26811;53.160;8.202;2024-02-26T20:53:06;34.65;;;16.88;;
41059;SDS011;26811;53.160;8.202;2024-02-26T20:58:07;35.95;;;16.92;;
41059;SDS011;26811;53.160;8.202;2024-02-26T21:03:08;35.53;;;16.80;;
41059;SDS011;26811;53.160;8.202;2024-02-26T21:08:10;41.00;;;18.67;;
41059;SDS011;26811;53.160;8.202;2024-02-26T21:13:10;39.17;;;18.27;;
41059;SDS011;26811;53.160;8.202;2024-02-26T21:18:11;36.28;;;17.50;;
41059;SDS011;26811;53.160;8.202;2024-02-26T21:23:11;38.85;;;17.30;;
41059;SDS011;26811;53.160;8.202;2024-02-26T21:28:12;38.70;;;17.88;;
41059;SDS011;26811;53.160;8.202;2024-02-26T21:33:13;35.67;;;17.25;;
41059;SDS011;26811;53.160;8.202;2024-02-26T21:38:13;40.95;;;18.80;;
41059;SDS011;26811;53.160;8.202;2024-02-26T21:43:14;40.47;;;18.83;;
41059;SDS011;26811;53.160;8.202;2024-02-26T21:48:15;41.35;;;18.55;;
41059;SDS011;26811;53.160;8.202;2024-02-26T21:53:15;42.17;;;18.88;;
41059;SDS011;26811;53.160;8.202;2024-02-26T21:58:16;39.35;;;18.67;;
41059;SDS011;26811;53.160;8.202;2024-02-26T22:03:16;40.30;;;18.63;;
41059;SDS011;26811;53.160;8.202;2024-02-26T22:08:17;45.78;;;19.60;;
41059;SDS011;26811;53.160;8.202;2024-02-26T22:13:18;46.22;;;19.02;;
41059;SDS011;26811;53.160;8.202;2024-02-26T22:18:18;44.00;;;18.88;;
41059;SDS011;26811;53.160;8.202;2024-02-26T22:23:21;43.88;;;19.35;;
41059;SDS011;26811;53.160;8.202;2024-02-26T22:28:22;46.22;;;19.77;;
41059;SDS011;26811;53.160;8.202;2024-02-26T22:33:23;45.33;;;18.80;;
41059;SDS011;26811;53.160;8.202;2024-02-26T22:38:23;45.17;;;18.73;;
41059;SDS011;26811;53.160;8.202;2024-02-26T22:43:24;47.08;;;19.95;;
41059;SDS011;26811;53.160;8.202;2024-02-26T22:48:24;44.80;;;19.50;;
41059;SDS011;26811;53.160;8.202;2024-02-26T22:53:25;48.45;;;19.52;;
41059;SDS011;26811;53.160;8.202;2024-02-26T22:58:26;51.63;;;20.60;;
41059;SDS011;26811;53.160;8.202;2024-02-26T23:03:26;46.17;;;19.80;;
41059;SDS011;26811;53.160;8.202;2024-02-26T23:08:27;48.20;;;20.27;;
41059;SDS011;26811;53.160;8.202;2024-02-26T23:13:28;50.72;;;20.10;;
41059;SDS011;26811;53.160;8.202;2024-02-26T23:18:28;47.60;;;20.42;;
41059;SDS011;26811;53.160;8.202;2024-02-26T23:23:29;50.97;;;20.75;;
41059;SDS011;26811;53.160;8.202;2024-02-26T23:28:30;47.03;;;20.67;;
41059;SDS011;26811;53.160;8.202;2024-02-26T23:33:31;51.28;;;20.88;;
41059;SDS011;26811;53.160;8.202;2024-02-26T23:38:31;49.45;;;20.95;;
41059;SDS011;26811;53.160;8.202;2024-02-26T23:43:32;49.08;;;19.88;;
41059;SDS011;26811;53.160;8.202;2024-02-26T23:48:32;48.00;;;20.92;;
41059;SDS011;26811;53.160;8.202;2024-02-26T23:53:33;46.33;;;19.92;;
41059;SDS011;26811;53.160;8.202;2024-02-26T23:58:33;48.83;;;20.13;;
